Time,TemperatureF,DewpointF,PressureIn,WindDirection,WindDirectionDegrees,WindSpeedMPH,WindSpeedGustMPH,Humidity,HourlyPrecipIn,Conditions,Clouds,dailyrainin,SolarRadiationWatts/m^2,SoftwareType,DateUTC
2013-07-15 00:13:00,73.7,72.0,30.07,SW,217,0.0,-999.0,93,-99.99,,,0.00,0,weatherlink.com 1.10,2013-07-15 05:13:00,
2013-07-15 00:28:00,73.5,71.0,30.08,SW,217,0.0,-999.0,93,-99.99,,,0.00,0,weatherlink.com 1.10,2013-07-15 05:28:00,
2013-07-15 00:43:00,73.3,71.0,30.07,SW,217,0.0,-999.0,93,-99.99,,,0.00,0,weatherlink.com 1.10,2013-07-15 05:43:00,
2013-07-15 00:58:00,73.2,71.0,30.07,SW,217,0.0,-999.0,93,-99.99,,,0.00,0,weatherlink.com 1.10,2013-07-15 05:58:00,
2013-07-15 01:13:00,73.1,71.0,30.07,SW,217,0.0,-999.0,93,-99.99,,,0.00,0,weatherlink.com 1.10,2013-07-15 06:13:00,
2013-07-15 01:28:00,73.0,71.0,30.07,SW,217,0.0,-999.0,93,-99.99,,,0.00,0,weatherlink.com 1.10,2013-07-15 06:28:00,
2013-07-15 01:43:00,72.8,71.0,30.07,SW,217,0.0,-999.0,93,-99.99,,,0.00,0,weatherlink.com 1.10,2013-07-15 06:43:00,
2013-07-15 01:58:00,72.8,71.0,30.07,SW,217,0.0,-999.0,93,-99.99,,,0.00,0,weatherlink.com 1.10,2013-07-15 06:58:00,
2013-07-15 02:13:00,72.7,71.0,30.07,SW,217,0.0,-999.0,93,-99.99,,,0.00,0,weatherlink.com 1.10,2013-07-15 07:13:00,
2013-07-15 02:28:00,72.6,71.0,30.07,SW,217,0.0,-999.0,93,-99.99,,,0.00,0,weatherlink.com 1.10,2013-07-15 07:28:00,
2013-07-15 02:43:00,72.5,70.0,30.07,SW,217,0.0,-999.0,93,-99.99,,,0.00,0,weatherlink.com 1.10,2013-07-15 07:43:00,
2013-07-15 02:58:00,72.5,70.0,30.07,SW,217,0.0,-999.0,93,-99.99,,,0.00,0,weatherlink.com 1.10,2013-07-15 07:58:00,
2013-07-15 03:13:00,72.4,70.0,30.07,SW,217,0.0,-999.0,93,-99.99,,,0.00,0,weatherlink.com 1.10,2013-07-15 08:13:00,
2013-07-15 03:28:00,72.4,70.0,30.07,SW,217,0.0,-999.0,93,-99.99,,,0.00,0,weatherlink.com 1.10,2013-07-15 08:28:00,
2013-07-15 03:43:00,72.3,70.0,30.07,SW,217,0.0,-999.0,93,-99.99,,,0.00,0,weatherlink.com 1.10,2013-07-15 08:43:00,
2013-07-15 03:59:00,72.2,70.0,30.07,SW,217,0.0,-999.0,93,-99.99,,,0.00,0,weatherlink.com 1.10,2013-07-15 08:59:00,
2013-07-15 04:14:00,72.1,70.0,30.08,SW,217,0.0,-999.0,93,-99.99,,,0.00,0,weatherlink.com 1.10,2013-07-15 09:14:00,
2013-07-15 04:29:00,72.0,70.0,30.08,SW,217,0.0,-999.0,93,-99.99,,,0.00,0,weatherlink.com 1.10,2013-07-15 09:29:00,
2013-07-15 04:44:00,72.0,70.0,30.09,SW,217,0.0,-999.0,94,-99.99,,,0.00,0,weatherlink.com 1.10,2013-07-15 09:44:00,
2013-07-15 04:59:00,72.1,70.0,30.09,SW,217,0.0,-999.0,94,-99.99,,,0.00,0,weatherlink.com 1.10,2013-07-15 09:59:00,
2013-07-15 05:14:00,72.2,70.0,30.10,SW,217,0.0,-999.0,94,-99.99,,,0.00,0,weatherlink.com 1.10,2013-07-15 10:14:00,
2013-07-15 05:29:00,72.3,71.0,30.10,SW,217,0.0,-999.0,94,-99.99,,,0.00,0,weatherlink.com 1.10,2013-07-15 10:29:00,
2013-07-15 05:44:00,72.4,71.0,30.11,SW,217,0.0,-999.0,94,-99.99,,,0.00,0,weatherlink.com 1.10,2013-07-15 10:44:00,
2013-07-15 05:59:00,72.5,71.0,30.11,SW,217,0.0,-999.0,94,-99.99,,,0.00,0,weatherlink.com 1.10,2013-07-15 10:59:00,
2013-07-15 06:14:00,72.5,71.0,30.11,SW,217,0.0,-999.0,94,-99.99,,,0.00,5,weatherlink.com 1.10,2013-07-15 11:14:00,
2013-07-15 06:29:00,72.6,71.0,30.12,SW,217,0.0,-999.0,94,-99.99,,,0.00,12,weatherlink.com 1.10,2013-07-15 11:29:00,
2013-07-15 06:44:00,72.8,71.0,30.13,SW,217,0.0,-999.0,94,-99.99,,,0.00,14,weatherlink.com 1.10,2013-07-15 11:44:00,
2013-07-15 06:59:00,73.0,72.0,30.13,SW,217,0.0,-999.0,95,-99.99,,,0.00,21,weatherlink.com 1.10,2013-07-15 11:59:00,
2013-07-15 07:14:00,73.3,72.0,30.14,SW,217,0.0,-999.0,95,-99.99,,,0.00,33,weatherlink.com 1.10,2013-07-15 12:14:00,
2013-07-15 07:29:00,73.7,72.0,30.14,SW,217,0.0,-999.0,95,-99.99,,,0.00,21,weatherlink.com 1.10,2013-07-15 12:29:00,
2013-07-15 07:44:00,73.9,72.0,30.14,SW,217,0.0,-999.0,95,-99.99,,,0.00,26,weatherlink.com 1.10,2013-07-15 12:44:00,
2013-07-15 07:59:00,74.2,73.0,30.15,SW,217,0.0,-999.0,95,-99.99,,,0.00,26,weatherlink.com 1.10,2013-07-15 12:59:00,
2013-07-15 08:14:00,74.4,73.0,30.15,SW,217,0.0,-999.0,95,-99.99,,,0.00,83,weatherlink.com 1.10,2013-07-15 13:14:00,
2013-07-15 08:29:00,74.8,73.0,30.16,SW,217,0.0,-999.0,95,-99.99,,,0.00,83,weatherlink.com 1.10,2013-07-15 13:29:00,
2013-07-15 08:44:00,75.1,74.0,30.16,SW,217,0.0,-999.0,95,-99.99,,,0.00,69,weatherlink.com 1.10,2013-07-15 13:44:00,
2013-07-15 08:59:00,75.4,74.0,30.16,SW,217,0.0,-999.0,95,-99.99,,,0.00,62,weatherlink.com 1.10,2013-07-15 13:59:00,
2013-07-15 09:14:00,75.6,74.0,30.17,SW,217,0.0,-999.0,95,-99.99,,,0.00,91,weatherlink.com 1.10,2013-07-15 14:14:00,
2013-07-15 09:29:00,76.0,75.0,30.17,SW,217,0.0,-999.0,95,-99.99,,,0.00,62,weatherlink.com 1.10,2013-07-15 14:29:00,
2013-07-15 09:44:00,76.4,75.0,30.17,SW,217,0.0,-999.0,94,-99.99,,,0.00,95,weatherlink.com 1.10,2013-07-15 14:44:00,
2013-07-15 09:59:00,76.7,75.0,30.17,SW,217,0.0,-999.0,93,-99.99,,,0.00,86,weatherlink.com 1.10,2013-07-15 14:59:00,
2013-07-15 10:14:00,79.2,75.0,30.17,SW,217,0.0,-999.0,87,-99.99,,,0.00,149,weatherlink.com 1.10,2013-07-15 15:14:00,
2013-07-15 10:29:00,79.5,75.0,30.17,SW,217,0.0,-999.0,85,-99.99,,,0.00,163,weatherlink.com 1.10,2013-07-15 15:29:00,
2013-07-15 10:59:00,82.5,76.0,30.16,SW,217,0.0,-999.0,81,-99.99,,,0.00,120,weatherlink.com 1.10,2013-07-15 15:59:00,
2013-07-15 11:14:00,82.1,75.0,30.16,SW,217,0.0,-999.0,80,-99.99,,,0.00,90,weatherlink.com 1.10,2013-07-15 16:14:00,
2013-07-15 11:29:00,83.5,76.0,30.16,SW,217,0.0,-999.0,78,-99.99,,,0.00,132,weatherlink.com 1.10,2013-07-15 16:29:00,
2013-07-15 12:00:00,84.5,75.0,30.15,SW,217,0.0,-999.0,73,-99.99,,,0.00,234,weatherlink.com 1.10,2013-07-15 17:00:00,
2013-07-15 12:15:00,86.0,76.0,30.15,SW,217,0.0,-999.0,71,-99.99,,,0.00,1025,weatherlink.com 1.10,2013-07-15 17:15:00,
2013-07-15 12:45:00,87.1,77.0,30.14,SW,217,0.0,-999.0,71,-99.99,,,0.00,1086,weatherlink.com 1.10,2013-07-15 17:45:00,
2013-07-15 13:00:00,88.1,75.0,30.14,SW,219,0.0,-999.0,66,-99.99,,,0.00,1146,weatherlink.com 1.10,2013-07-15 18:00:00,
2013-07-15 13:15:00,87.1,75.0,30.14,SW,219,0.0,-999.0,68,-99.99,,,0.00,1201,weatherlink.com 1.10,2013-07-15 18:15:00,
2013-07-15 13:45:00,86.3,74.0,30.13,SW,219,0.0,-999.0,67,-99.99,,,0.00,158,weatherlink.com 1.10,2013-07-15 18:45:00,
2013-07-15 14:00:00,87.2,75.0,30.12,SW,219,0.0,-999.0,67,-99.99,,,0.00,1016,weatherlink.com 1.10,2013-07-15 19:00:00,
2013-07-15 14:15:00,87.2,74.0,30.12,SW,219,0.0,-999.0,65,-99.99,,,0.00,84,weatherlink.com 1.10,2013-07-15 19:15:00,
2013-07-15 14:30:00,87.5,75.0,30.11,SW,219,0.0,-999.0,67,-99.99,,,0.00,130,weatherlink.com 1.10,2013-07-15 19:30:00,
2013-07-15 15:00:00,86.8,75.0,30.11,SW,219,0.0,-999.0,67,-99.99,,,0.00,900,weatherlink.com 1.10,2013-07-15 20:00:00,
2013-07-15 15:30:00,85.9,76.0,30.11,SW,219,0.0,-999.0,72,-99.99,,,0.00,221,weatherlink.com 1.10,2013-07-15 20:30:00,
2013-07-15 15:45:00,83.8,76.0,30.11,SW,219,0.0,-999.0,76,-99.99,,,0.00,213,weatherlink.com 1.10,2013-07-15 20:45:00,
2013-07-15 16:00:00,84.6,76.0,30.11,SW,219,0.0,-999.0,74,-99.99,,,0.00,387,weatherlink.com 1.10,2013-07-15 21:00:00,
2013-07-15 16:15:00,85.4,76.0,30.11,SW,219,0.0,-999.0,73,-99.99,,,0.00,376,weatherlink.com 1.10,2013-07-15 21:15:00,
2013-07-15 16:30:00,85.1,76.0,30.10,SW,219,0.0,-999.0,75,-99.99,,,0.00,111,weatherlink.com 1.10,2013-07-15 21:30:00,
2013-07-15 16:45:00,85.2,76.0,30.10,South,175,0.0,-999.0,74,-99.99,,,0.00,84,weatherlink.com 1.10,2013-07-15 21:45:00,
2013-07-15 17:30:00,85.5,77.0,30.09,South,175,0.0,-999.0,75,-99.99,,,0.00,121,weatherlink.com 1.10,2013-07-15 22:30:00,
2013-07-15 18:00:00,78.7,75.0,30.11,South,175,0.0,-999.0,89,-99.99,,,0.01,37,weatherlink.com 1.10,2013-07-15 23:00:00,
2013-07-15 18:15:00,78.2,75.0,30.11,South,175,0.0,-999.0,91,-99.99,,,0.01,19,weatherlink.com 1.10,2013-07-15 23:15:00,
2013-07-15 18:30:00,78.4,76.0,30.11,South,175,0.0,-999.0,91,-99.99,,,0.01,21,weatherlink.com 1.10,2013-07-15 23:30:00,
2013-07-15 19:00:00,78.2,75.0,30.12,South,175,0.0,-999.0,91,-99.99,,,0.01,16,weatherlink.com 1.10,2013-07-16 00:00:00,
2013-07-15 19:15:00,78.0,75.0,30.13,South,175,0.0,-999.0,91,-99.99,,,0.01,14,weatherlink.com 1.10,2013-07-16 00:15:00,
2013-07-15 19:30:00,77.8,75.0,30.13,South,175,0.0,-999.0,91,-99.99,,,0.01,5,weatherlink.com 1.10,2013-07-16 00:30:00,
2013-07-15 20:00:00,77.5,75.0,30.14,South,175,0.0,-999.0,92,-99.99,,,0.01,0,weatherlink.com 1.10,2013-07-16 01:00:00,
2013-07-15 20:15:00,77.4,75.0,30.14,South,175,0.0,-999.0,92,-99.99,,,0.01,0,weatherlink.com 1.10,2013-07-16 01:15:00,
2013-07-15 20:30:00,77.2,75.0,30.15,South,175,0.0,-999.0,92,-99.99,,,0.01,0,weatherlink.com 1.10,2013-07-16 01:30:00,
2013-07-15 20:45:00,77.0,75.0,30.15,South,175,0.0,-999.0,93,-99.99,,,0.01,0,weatherlink.com 1.10,2013-07-16 01:45:00,
2013-07-15 21:00:00,76.8,75.0,30.16,South,175,0.0,-999.0,93,-99.99,,,0.01,0,weatherlink.com 1.10,2013-07-16 02:00:00,
2013-07-15 21:30:00,76.4,74.0,30.17,South,175,0.0,-999.0,93,-99.99,,,0.01,0,weatherlink.com 1.10,2013-07-16 02:30:00,
2013-07-15 21:45:00,76.2,74.0,30.17,South,175,0.0,-999.0,93,-99.99,,,0.01,0,weatherlink.com 1.10,2013-07-16 02:45:00,
2013-07-15 22:00:00,75.9,74.0,30.17,South,175,0.0,-999.0,93,-99.99,,,0.01,0,weatherlink.com 1.10,2013-07-16 03:00:00,
2013-07-15 22:30:00,75.5,73.0,30.18,South,175,0.0,-999.0,93,-99.99,,,0.01,0,weatherlink.com 1.10,2013-07-16 03:30:00,
2013-07-15 22:45:00,75.3,73.0,30.17,South,175,0.0,-999.0,93,-99.99,,,0.01,0,weatherlink.com 1.10,2013-07-16 03:45:00,
2013-07-15 23:00:00,75.2,73.0,30.17,South,175,0.0,-999.0,94,-99.99,,,0.01,0,weatherlink.com 1.10,2013-07-16 04:00:00,
2013-07-15 23:15:00,75.0,73.0,30.17,South,175,0.0,-999.0,94,-99.99,,,0.01,0,weatherlink.com 1.10,2013-07-16 04:15:00,
2013-07-15 23:30:00,74.8,73.0,30.17,South,175,0.0,-999.0,94,-99.99,,,0.01,0,weatherlink.com 1.10,2013-07-16 04:30:00,
2013-07-15 23:45:00,74.6,73.0,30.17,South,175,0.0,-999.0,94,-99.99,,,0.01,0,weatherlink.com 1.10,2013-07-16 04:45:00,